LFSO

Nancy-Ochey (BA 133) Air Base Airport

Nancy/Ochey, France
TAF LFSO 201400Z 2015/2115 35007KT CAVOK
Issued Valid From Valid To
Apr-20 @ 14:00 UTC
(14 hours ago)
Apr-20 @ 15:00 UTC
(13 hours ago)
Apr-21 @ 15:00 UTC
(in 11 hours)
Apr-20 @ 15:00 to Apr-21 @ 15:00
TAF LFSO 201400Z 2015/2115 35007KT CAVOK
Wind Visibility Clouds Conditions
350° at 7 knots 10,000+ meters
  • No significant clouds
TAF LFSO 201400Z 2015/2115 35007KT CAVOK
Issued Apr-20 @ 14:00 UTC
(14 hours ago)
Valid From Apr-20 @ 15:00 UTC
(13 hours ago)
Valid To Apr-21 @ 15:00 UTC
(in 11 hours)
Apr-20 @ 15:00 - Apr-21 @ 15:00
Wind Visibility
350° at 7 knots 10,000+ meters
Clouds
  • No significant clouds
Conditions